createdAt,value
2018-07-26T00:01:11.473Z,1.65
2018-07-26T00:03:39.833Z,1.80
2018-07-26T00:06:08.173Z,1.70
2018-07-26T00:08:36.238Z,1.75
2018-07-26T00:11:04.591Z,1.90
2018-07-26T00:13:32.932Z,1.82
2018-07-26T00:16:01.247Z,1.67
2018-07-26T00:18:29.556Z,2.00
2018-07-26T00:20:57.935Z,1.90
2018-07-26T00:23:26.256Z,2.40
2018-07-26T00:25:54.587Z,1.42
2018-07-26T00:28:22.916Z,2.12
2018-07-26T00:30:51.267Z,1.85
2018-07-26T00:33:19.587Z,2.02
2018-07-26T00:35:47.972Z,1.70
2018-07-26T00:38:16.340Z,1.82
2018-07-26T00:40:44.710Z,1.60
2018-07-26T00:43:13.138Z,1.45
2018-07-26T00:45:41.490Z,1.90
2018-07-26T00:48:09.811Z,1.50
2018-07-26T00:50:38.125Z,1.72
2018-07-26T00:53:06.471Z,1.60
2018-07-26T00:55:34.848Z,1.45
2018-07-26T00:58:03.212Z,1.72
2018-07-26T01:00:31.527Z,1.70
2018-07-26T01:02:59.899Z,1.90
2018-07-26T01:05:28.211Z,2.00
2018-07-26T01:07:56.540Z,1.60
2018-07-26T01:10:24.886Z,1.75
2018-07-26T01:12:53.247Z,1.65
2018-07-26T01:15:21.575Z,2.37
2018-07-26T01:17:49.907Z,2.20
2018-07-26T01:20:18.243Z,2.27
2018-07-26T01:22:46.573Z,1.85
2018-07-26T01:25:14.903Z,2.10
2018-07-26T01:27:43.268Z,2.10
2018-07-26T01:30:11.628Z,2.12
2018-07-26T01:32:39.988Z,2.35
2018-07-26T01:35:08.351Z,2.17
2018-07-26T01:37:36.749Z,2.20
2018-07-26T01:40:05.150Z,2.52
2018-07-26T01:44:43.607Z,2.50
2018-07-26T01:47:11.963Z,2.95
2018-07-26T01:49:40.302Z,2.00
2018-07-26T01:52:08.676Z,2.90
2018-07-26T01:54:37.036Z,2.20
2018-07-26T01:57:05.433Z,2.45
2018-07-26T01:59:33.767Z,2.47
2018-07-26T02:02:02.115Z,2.45
2018-07-26T02:04:30.442Z,2.60
2018-07-26T02:06:58.788Z,3.20
2018-07-26T02:09:27.106Z,2.95
2018-07-26T02:11:55.473Z,2.60
2018-07-26T02:14:29.355Z,2.92
2018-07-26T02:16:57.730Z,2.60
2018-07-26T02:19:26.044Z,3.00
2018-07-26T02:21:54.382Z,2.58
2018-07-26T02:24:22.721Z,2.72
2018-07-26T02:26:51.068Z,3.95
2018-07-26T02:29:19.458Z,3.00
2018-07-26T02:31:47.799Z,2.80
2018-07-26T02:34:16.147Z,3.33
2018-07-26T02:36:44.578Z,3.10
2018-07-26T02:39:12.923Z,3.37
2018-07-26T02:41:41.234Z,3.00
2018-07-26T02:44:09.599Z,3.22
2018-07-26T02:46:37.911Z,2.85
2018-07-26T02:49:06.350Z,2.90
2018-07-26T02:51:34.700Z,3.08
2018-07-26T02:54:02.828Z,2.98
2018-07-26T02:56:31.252Z,3.17
2018-07-26T02:58:59.659Z,2.70
2018-07-26T03:01:28.084Z,3.00
2018-07-26T03:03:56.440Z,3.58
2018-07-26T03:06:24.822Z,3.22
2018-07-26T03:08:53.216Z,2.92
2018-07-26T03:11:21.566Z,3.10
2018-07-26T03:13:49.934Z,3.00
2018-07-26T03:16:18.272Z,3.08
2018-07-26T03:18:46.635Z,3.33
2018-07-26T03:21:15.008Z,3.12
2018-07-26T03:23:43.354Z,3.37
2018-07-26T03:26:11.718Z,3.52
2018-07-26T03:28:40.060Z,4.15
2018-07-26T03:31:08.883Z,4.15
2018-07-26T03:33:37.332Z,4.00
